Quandahl, Iowa
Current Conditions -  °F | °C
As of 4:35 AM on Thursday 29 Jan 2015 (Local Time) from KDEH Reporting Station
Haze Haze  
Wind Chill: 20°   Ceiling: 1000
Heat Index: 32°   Visibility: 6mi
Dew Point: 30°   Wind: 21mph
Humidity: 93%   Direction: 330°NNW
Pressure: 29.86"   Gusts: 28mph
Location:  43.3626°N, 91.8164°W
Report Text: KDEH 291035Z AUTO 33018G24KT 6SM BR OVC010 M00/M01 A2986 RMK AO2
Loading
Personal Weather Stations






























Interactive Weather Map New forecast layout! Learn more

10-Day Weather Forecast

Advertisements
Track Severe Weather on mobile